sensor_id;sensor_type;location;lat;lon;timestamp;P1;durP1;ratioP1;P2;durP2;ratioP2
16822;SDS011;8528;49.976;11.858;2024-03-02T00:00:12;7.27;;;5.47;;
16822;SDS011;8528;49.976;11.858;2024-03-02T00:02:44;6.87;;;5.07;;
16822;SDS011;8528;49.976;11.858;2024-03-02T00:05:11;6.83;;;5.03;;
16822;SDS011;8528;49.976;11.858;2024-03-02T00:07:41;6.63;;;4.67;;
16822;SDS011;8528;49.976;11.858;2024-03-02T00:10:09;5.70;;;4.27;;
16822;SDS011;8528;49.976;11.858;2024-03-02T00:12:41;5.90;;;4.30;;
16822;SDS011;8528;49.976;11.858;2024-03-02T00:17:56;6.83;;;4.80;;
16822;SDS011;8528;49.976;11.858;2024-03-02T00:20:25;6.97;;;4.60;;
16822;SDS011;8528;49.976;11.858;2024-03-02T00:22:56;6.70;;;4.50;;
16822;SDS011;8528;49.976;11.858;2024-03-02T00:28:13;5.30;;;3.90;;
16822;SDS011;8528;49.976;11.858;2024-03-02T00:33:33;5.07;;;3.97;;
16822;SDS011;8528;49.976;11.858;2024-03-02T00:36:09;6.43;;;4.30;;
16822;SDS011;8528;49.976;11.858;2024-03-02T00:38:46;6.30;;;4.07;;
16822;SDS011;8528;49.976;11.858;2024-03-02T00:41:27;6.23;;;4.33;;
16822;SDS011;8528;49.976;11.858;2024-03-02T00:43:58;6.60;;;4.33;;
16822;SDS011;8528;49.976;11.858;2024-03-02T00:46:27;6.00;;;4.30;;
16822;SDS011;8528;49.976;11.858;2024-03-02T00:48:57;5.50;;;3.57;;
16822;SDS011;8528;49.976;11.858;2024-03-02T00:51:26;5.20;;;4.13;;
16822;SDS011;8528;49.976;11.858;2024-03-02T00:53:57;4.17;;;3.43;;
16822;SDS011;8528;49.976;11.858;2024-03-02T00:56:26;5.50;;;4.30;;
16822;SDS011;8528;49.976;11.858;2024-03-02T00:58:53;4.63;;;3.50;;
16822;SDS011;8528;49.976;11.858;2024-03-02T01:01:20;6.10;;;3.70;;
16822;SDS011;8528;49.976;11.858;2024-03-02T01:03:47;4.53;;;3.53;;
16822;SDS011;8528;49.976;11.858;2024-03-02T01:06:15;6.40;;;3.63;;
16822;SDS011;8528;49.976;11.858;2024-03-02T01:08:43;4.73;;;4.17;;
16822;SDS011;8528;49.976;11.858;2024-03-02T01:11:10;5.70;;;3.90;;
16822;SDS011;8528;49.976;11.858;2024-03-02T01:13:37;5.67;;;3.83;;
16822;SDS011;8528;49.976;11.858;2024-03-02T01:16:04;5.13;;;3.67;;
16822;SDS011;8528;49.976;11.858;2024-03-02T01:18:32;4.67;;;4.00;;
16822;SDS011;8528;49.976;11.858;2024-03-02T01:21:00;4.90;;;3.43;;
16822;SDS011;8528;49.976;11.858;2024-03-02T01:23:28;4.60;;;3.60;;
16822;SDS011;8528;49.976;11.858;2024-03-02T01:25:55;5.10;;;3.50;;
16822;SDS011;8528;49.976;11.858;2024-03-02T01:28:22;5.17;;;3.70;;
16822;SDS011;8528;49.976;11.858;2024-03-02T01:30:49;5.93;;;3.63;;
16822;SDS011;8528;49.976;11.858;2024-03-02T01:33:19;5.50;;;3.73;;
16822;SDS011;8528;49.976;11.858;2024-03-02T01:35:47;5.60;;;3.77;;
16822;SDS011;8528;49.976;11.858;2024-03-02T01:38:14;5.53;;;3.70;;
16822;SDS011;8528;49.976;11.858;2024-03-02T01:40:41;3.40;;;3.00;;
16822;SDS011;8528;49.976;11.858;2024-03-02T01:43:10;4.90;;;3.10;;
16822;SDS011;8528;49.976;11.858;2024-03-02T01:45:37;3.83;;;3.20;;
16822;SDS011;8528;49.976;11.858;2024-03-02T01:48:06;4.80;;;3.40;;
16822;SDS011;8528;49.976;11.858;2024-03-02T01:50:34;5.37;;;4.07;;
16822;SDS011;8528;49.976;11.858;2024-03-02T01:53:02;7.80;;;4.30;;
16822;SDS011;8528;49.976;11.858;2024-03-02T01:55:29;6.20;;;3.80;;
16822;SDS011;8528;49.976;11.858;2024-03-02T01:57:57;6.73;;;5.07;;
16822;SDS011;8528;49.976;11.858;2024-03-02T02:00:25;6.57;;;4.73;;
16822;SDS011;8528;49.976;11.858;2024-03-02T02:02:53;6.47;;;4.77;;
16822;SDS011;8528;49.976;11.858;2024-03-02T02:05:21;6.83;;;4.40;;
16822;SDS011;8528;49.976;11.858;2024-03-02T02:07:49;8.23;;;4.80;;
16822;SDS011;8528;49.976;11.858;2024-03-02T02:10:16;6.93;;;4.53;;
16822;SDS011;8528;49.976;11.858;2024-03-02T02:12:43;9.87;;;5.80;;
16822;SDS011;8528;49.976;11.858;2024-03-02T02:15:29;11.70;;;5.87;;
16822;SDS011;8528;49.976;11.858;2024-03-02T02:17:58;16.17;;;7.03;;
16822;SDS011;8528;49.976;11.858;2024-03-02T02:20:26;17.27;;;7.90;;
16822;SDS011;8528;49.976;11.858;2024-03-02T02:22:59;22.27;;;8.13;;
16822;SDS011;8528;49.976;11.858;2024-03-02T02:25:30;15.87;;;8.50;;
16822;SDS011;8528;49.976;11.858;2024-03-02T02:27:57;15.67;;;8.40;;
16822;SDS011;8528;49.976;11.858;2024-03-02T02:30:29;10.30;;;5.00;;
16822;SDS011;8528;49.976;11.858;2024-03-02T02:32:57;9.37;;;4.83;;
16822;SDS011;8528;49.976;11.858;2024-03-02T02:35:25;8.37;;;4.57;;
16822;SDS011;8528;49.976;11.858;2024-03-02T02:37:52;9.87;;;5.03;;
16822;SDS011;8528;49.976;11.858;2024-03-02T02:40:21;5.90;;;4.10;;
16822;SDS011;8528;49.976;11.858;2024-03-02T02:42:48;7.27;;;4.10;;
16822;SDS011;8528;49.976;11.858;2024-03-02T02:45:16;11.80;;;5.10;;
16822;SDS011;8528;49.976;11.858;2024-03-02T02:47:43;7.93;;;4.50;;
16822;SDS011;8528;49.976;11.858;2024-03-02T02:50:11;7.27;;;4.20;;
16822;SDS011;8528;49.976;11.858;2024-03-02T02:52:39;6.63;;;4.37;;
16822;SDS011;8528;49.976;11.858;2024-03-02T02:55:08;6.07;;;4.30;;
16822;SDS011;8528;49.976;11.858;2024-03-02T02:57:36;7.17;;;4.10;;
16822;SDS011;8528;49.976;11.858;2024-03-02T03:00:07;6.10;;;4.07;;
16822;SDS011;8528;49.976;11.858;2024-03-02T03:02:44;8.80;;;4.60;;
16822;SDS011;8528;49.976;11.858;2024-03-02T03:05:14;9.97;;;5.30;;
16822;SDS011;8528;49.976;11.858;2024-03-02T03:07:42;8.97;;;5.10;;
16822;SDS011;8528;49.976;11.858;2024-03-02T03:10:10;11.30;;;6.30;;
16822;SDS011;8528;49.976;11.858;2024-03-02T03:12:38;12.37;;;6.23;;
16822;SDS011;8528;49.976;11.858;2024-03-02T03:15:04;10.60;;;5.90;;
16822;SDS011;8528;49.976;11.858;2024-03-02T03:17:33;12.33;;;6.03;;
16822;SDS011;8528;49.976;11.858;2024-03-02T03:20:01;13.23;;;6.47;;
16822;SDS011;8528;49.976;11.858;2024-03-02T03:22:30;10.27;;;5.80;;
16822;SDS011;8528;49.976;11.858;2024-03-02T03:24:57;11.67;;;6.10;;
16822;SDS011;8528;49.976;11.858;2024-03-02T03:27:25;12.87;;;6.83;;
16822;SDS011;8528;49.976;11.858;2024-03-02T03:29:52;13.00;;;6.57;;
16822;SDS011;8528;49.976;11.858;2024-03-02T03:32:20;13.60;;;6.43;;
16822;SDS011;8528;49.976;11.858;2024-03-02T03:34:50;12.77;;;6.33;;
16822;SDS011;8528;49.976;11.858;2024-03-02T03:37:17;11.50;;;5.63;;
16822;SDS011;8528;49.976;11.858;2024-03-02T03:39:44;10.70;;;6.10;;
16822;SDS011;8528;49.976;11.858;2024-03-02T03:42:11;9.70;;;5.60;;
16822;SDS011;8528;49.976;11.858;2024-03-02T03:44:38;12.47;;;6.20;;
16822;SDS011;8528;49.976;11.858;2024-03-02T03:47:06;9.60;;;6.57;;
16822;SDS011;8528;49.976;11.858;2024-03-02T03:49:33;11.47;;;6.73;;
16822;SDS011;8528;49.976;11.858;2024-03-02T03:52:00;15.13;;;6.83;;
16822;SDS011;8528;49.976;11.858;2024-03-02T03:54:27;12.90;;;7.13;;
16822;SDS011;8528;49.976;11.858;2024-03-02T03:56:54;14.17;;;7.87;;
16822;SDS011;8528;49.976;11.858;2024-03-02T03:59:22;14.40;;;7.57;;
16822;SDS011;8528;49.976;11.858;2024-03-02T04:01:50;10.43;;;6.60;;
16822;SDS011;8528;49.976;11.858;2024-03-02T04:04:17;15.00;;;7.37;;
16822;SDS011;8528;49.976;11.858;2024-03-02T04:06:44;14.63;;;7.03;;
16822;SDS011;8528;49.976;11.858;2024-03-02T04:09:11;14.17;;;7.30;;
16822;SDS011;8528;49.976;11.858;2024-03-02T04:11:38;14.37;;;7.23;;
16822;SDS011;8528;49.976;11.858;2024-03-02T04:14:05;14.17;;;6.70;;
16822;SDS011;8528;49.976;11.858;2024-03-02T04:16:32;15.70;;;7.83;;
16822;SDS011;8528;49.976;11.858;2024-03-02T04:19:02;13.37;;;7.40;;
16822;SDS011;8528;49.976;11.858;2024-03-02T04:21:33;12.30;;;6.93;;
16822;SDS011;8528;49.976;11.858;2024-03-02T04:24:04;13.93;;;7.20;;
16822;SDS011;8528;49.976;11.858;2024-03-02T04:26:31;12.57;;;7.83;;
16822;SDS011;8528;49.976;11.858;2024-03-02T04:28:58;12.90;;;7.70;;
16822;SDS011;8528;49.976;11.858;2024-03-02T04:31:25;16.07;;;8.90;;
16822;SDS011;8528;49.976;11.858;2024-03-02T04:33:59;15.70;;;7.57;;
16822;SDS011;8528;49.976;11.858;2024-03-02T04:36:29;14.90;;;8.37;;
16822;SDS011;8528;49.976;11.858;2024-03-02T04:38:56;16.00;;;8.70;;
16822;SDS011;8528;49.976;11.858;2024-03-02T04:41:26;15.03;;;8.97;;
16822;SDS011;8528;49.976;11.858;2024-03-02T04:43:57;15.67;;;8.73;;
16822;SDS011;8528;49.976;11.858;2024-03-02T04:46:24;19.90;;;10.70;;
16822;SDS011;8528;49.976;11.858;2024-03-02T04:48:51;18.07;;;10.20;;
16822;SDS011;8528;49.976;11.858;2024-03-02T04:51:22;24.47;;;13.00;;
16822;SDS011;8528;49.976;11.858;2024-03-02T04:53:55;28.27;;;15.30;;
16822;SDS011;8528;49.976;11.858;2024-03-02T04:56:22;30.40;;;15.97;;
16822;SDS011;8528;49.976;11.858;2024-03-02T04:58:58;28.07;;;16.17;;
16822;SDS011;8528;49.976;11.858;2024-03-02T05:01:28;28.30;;;14.47;;
16822;SDS011;8528;49.976;11.858;2024-03-02T05:03:55;27.63;;;15.30;;
16822;SDS011;8528;49.976;11.858;2024-03-02T05:06:23;25.50;;;14.60;;
16822;SDS011;8528;49.976;11.858;2024-03-02T05:09:03;27.97;;;13.70;;
16822;SDS011;8528;49.976;11.858;2024-03-02T05:11:40;25.07;;;13.07;;
16822;SDS011;8528;49.976;11.858;2024-03-02T05:14:10;25.93;;;15.00;;
16822;SDS011;8528;49.976;11.858;2024-03-02T05:16:37;26.73;;;14.77;;
16822;SDS011;8528;49.976;11.858;2024-03-02T05:19:07;25.73;;;15.00;;
16822;SDS011;8528;49.976;11.858;2024-03-02T05:21:37;21.67;;;12.77;;
16822;SDS011;8528;49.976;11.858;2024-03-02T05:24:04;22.70;;;13.03;;
16822;SDS011;8528;49.976;11.858;2024-03-02T05:26:32;21.80;;;12.33;;
16822;SDS011;8528;49.976;11.858;2024-03-02T05:29:00;23.17;;;12.90;;
16822;SDS011;8528;49.976;11.858;2024-03-02T05:31:26;24.67;;;13.33;;
16822;SDS011;8528;49.976;11.858;2024-03-02T05:33:56;30.13;;;15.23;;
16822;SDS011;8528;49.976;11.858;2024-03-02T05:36:26;23.23;;;14.03;;
16822;SDS011;8528;49.976;11.858;2024-03-02T05:38:53;24.77;;;14.37;;
16822;SDS011;8528;49.976;11.858;2024-03-02T05:41:20;35.90;;;17.97;;
16822;SDS011;8528;49.976;11.858;2024-03-02T05:43:47;25.50;;;13.30;;
16822;SDS011;8528;49.976;11.858;2024-03-02T05:46:20;23.97;;;12.67;;
16822;SDS011;8528;49.976;11.858;2024-03-02T05:48:48;21.93;;;12.40;;
16822;SDS011;8528;49.976;11.858;2024-03-02T05:51:16;17.83;;;11.17;;
16822;SDS011;8528;49.976;11.858;2024-03-02T05:53:48;20.53;;;11.80;;
16822;SDS011;8528;49.976;11.858;2024-03-02T05:56:16;19.63;;;12.90;;
16822;SDS011;8528;49.976;11.858;2024-03-02T05:58:43;20.50;;;12.23;;
16822;SDS011;8528;49.976;11.858;2024-03-02T06:01:24;22.07;;;13.00;;
16822;SDS011;8528;49.976;11.858;2024-03-02T06:03:58;19.83;;;12.73;;
16822;SDS011;8528;49.976;11.858;2024-03-02T06:06:25;22.77;;;12.50;;
16822;SDS011;8528;49.976;11.858;2024-03-02T06:08:53;19.77;;;11.80;;
16822;SDS011;8528;49.976;11.858;2024-03-02T06:11:19;18.70;;;11.70;;
16822;SDS011;8528;49.976;11.858;2024-03-02T06:13:50;22.10;;;12.07;;
16822;SDS011;8528;49.976;11.858;2024-03-02T06:16:17;18.17;;;11.63;;
16822;SDS011;8528;49.976;11.858;2024-03-02T06:18:45;18.77;;;11.10;;
16822;SDS011;8528;49.976;11.858;2024-03-02T06:21:12;18.03;;;11.97;;
16822;SDS011;8528;49.976;11.858;2024-03-02T06:23:42;20.20;;;11.90;;
16822;SDS011;8528;49.976;11.858;2024-03-02T06:26:09;21.20;;;12.20;;
16822;SDS011;8528;49.976;11.858;2024-03-02T06:28:36;19.00;;;11.87;;
16822;SDS011;8528;49.976;11.858;2024-03-02T06:31:04;17.13;;;11.00;;
16822;SDS011;8528;49.976;11.858;2024-03-02T06:33:31;18.50;;;12.03;;
16822;SDS011;8528;49.976;11.858;2024-03-02T06:35:58;21.17;;;13.80;;
16822;SDS011;8528;49.976;11.858;2024-03-02T06:38:25;21.40;;;13.97;;
16822;SDS011;8528;49.976;11.858;2024-03-02T06:40:55;22.80;;;13.60;;
16822;SDS011;8528;49.976;11.858;2024-03-02T06:43:22;22.17;;;12.33;;
16822;SDS011;8528;49.976;11.858;2024-03-02T06:45:50;25.47;;;13.40;;
16822;SDS011;8528;49.976;11.858;2024-03-02T06:48:17;24.03;;;13.53;;
16822;SDS011;8528;49.976;11.858;2024-03-02T06:50:49;22.20;;;13.30;;
16822;SDS011;8528;49.976;11.858;2024-03-02T06:53:32;23.37;;;12.83;;
16822;SDS011;8528;49.976;11.858;2024-03-02T06:56:03;22.03;;;12.70;;
16822;SDS011;8528;49.976;11.858;2024-03-02T06:58:30;20.57;;;12.40;;
16822;SDS011;8528;49.976;11.858;2024-03-02T07:01:00;21.07;;;12.90;;
16822;SDS011;8528;49.976;11.858;2024-03-02T07:03:28;18.03;;;12.30;;
16822;SDS011;8528;49.976;11.858;2024-03-02T07:05:55;19.83;;;12.20;;
16822;SDS011;8528;49.976;11.858;2024-03-02T07:08:22;18.27;;;11.50;;
16822;SDS011;8528;49.976;11.858;2024-03-02T07:10:51;19.67;;;10.63;;
16822;SDS011;8528;49.976;11.858;2024-03-02T07:13:21;22.63;;;11.57;;
16822;SDS011;8528;49.976;11.858;2024-03-02T07:15:48;21.17;;;12.47;;
16822;SDS011;8528;49.976;11.858;2024-03-02T07:18:41;21.97;;;12.03;;
16822;SDS011;8528;49.976;11.858;2024-03-02T07:21:08;16.73;;;10.80;;
16822;SDS011;8528;49.976;11.858;2024-03-02T07:23:52;20.90;;;12.60;;
16822;SDS011;8528;49.976;11.858;2024-03-02T07:26:22;16.90;;;11.67;;
16822;SDS011;8528;49.976;11.858;2024-03-02T07:28:52;18.47;;;11.47;;
16822;SDS011;8528;49.976;11.858;2024-03-02T07:31:25;17.83;;;10.50;;
16822;SDS011;8528;49.976;11.858;2024-03-02T07:33:55;16.30;;;10.13;;
16822;SDS011;8528;49.976;11.858;2024-03-02T07:36:28;16.50;;;10.50;;
16822;SDS011;8528;49.976;11.858;2024-03-02T07:38:55;14.67;;;10.33;;
16822;SDS011;8528;49.976;11.858;2024-03-02T07:41:22;13.47;;;9.43;;
16822;SDS011;8528;49.976;11.858;2024-03-02T07:43:49;16.93;;;9.57;;
16822;SDS011;8528;49.976;11.858;2024-03-02T07:46:19;14.13;;;9.43;;
16822;SDS011;8528;49.976;11.858;2024-03-02T07:48:52;15.53;;;9.47;;
16822;SDS011;8528;49.976;11.858;2024-03-02T07:51:19;14.33;;;9.40;;
16822;SDS011;8528;49.976;11.858;2024-03-02T07:53:46;15.40;;;9.43;;
16822;SDS011;8528;49.976;11.858;2024-03-02T07:56:13;17.97;;;11.37;;
16822;SDS011;8528;49.976;11.858;2024-03-02T07:58:49;15.20;;;10.47;;
16822;SDS011;8528;49.976;11.858;2024-03-02T08:01:16;14.20;;;10.17;;
16822;SDS011;8528;49.976;11.858;2024-03-02T08:03:43;12.40;;;8.83;;
16822;SDS011;8528;49.976;11.858;2024-03-02T08:06:20;14.77;;;9.50;;
16822;SDS011;8528;49.976;11.858;2024-03-02T08:08:48;17.73;;;11.53;;
16822;SDS011;8528;49.976;11.858;2024-03-02T08:11:26;15.07;;;9.83;;
16822;SDS011;8528;49.976;11.858;2024-03-02T08:13:56;15.60;;;10.93;;
16822;SDS011;8528;49.976;11.858;2024-03-02T08:16:24;14.67;;;9.67;;
16822;SDS011;8528;49.976;11.858;2024-03-02T08:18:51;18.17;;;11.63;;
16822;SDS011;8528;49.976;11.858;2024-03-02T08:21:19;16.13;;;10.20;;
16822;SDS011;8528;49.976;11.858;2024-03-02T08:23:49;13.30;;;8.97;;
16822;SDS011;8528;49.976;11.858;2024-03-02T08:26:16;13.27;;;9.20;;
16822;SDS011;8528;49.976;11.858;2024-03-02T08:28:43;14.57;;;9.30;;
16822;SDS011;8528;49.976;11.858;2024-03-02T08:31:10;12.67;;;9.27;;
16822;SDS011;8528;49.976;11.858;2024-03-02T08:33:37;12.40;;;8.50;;
16822;SDS011;8528;49.976;11.858;2024-03-02T08:36:04;12.67;;;9.20;;
16822;SDS011;8528;49.976;11.858;2024-03-02T08:38:32;12.90;;;9.70;;
16822;SDS011;8528;49.976;11.858;2024-03-02T08:41:06;14.47;;;9.53;;
16822;SDS011;8528;49.976;11.858;2024-03-02T08:43:36;14.07;;;9.33;;
16822;SDS011;8528;49.976;11.858;2024-03-02T08:46:03;15.50;;;10.30;;
16822;SDS011;8528;49.976;11.858;2024-03-02T08:48:31;12.97;;;9.77;;
16822;SDS011;8528;49.976;11.858;2024-03-02T08:50:58;15.23;;;11.33;;
16822;SDS011;8528;49.976;11.858;2024-03-02T08:53:26;12.83;;;9.43;;
16822;SDS011;8528;49.976;11.858;2024-03-02T08:55:56;13.70;;;9.73;;
16822;SDS011;8528;49.976;11.858;2024-03-02T08:58:27;13.20;;;10.33;;
16822;SDS011;8528;49.976;11.858;2024-03-02T09:00:54;14.20;;;9.93;;
16822;SDS011;8528;49.976;11.858;2024-03-02T09:03:22;15.27;;;10.40;;
16822;SDS011;8528;49.976;11.858;2024-03-02T09:05:48;14.50;;;10.63;;
16822;SDS011;8528;49.976;11.858;2024-03-02T09:08:15;15.63;;;11.10;;
16822;SDS011;8528;49.976;11.858;2024-03-02T09:10:42;17.63;;;11.17;;
16822;SDS011;8528;49.976;11.858;2024-03-02T09:13:10;17.20;;;11.07;;
16822;SDS011;8528;49.976;11.858;2024-03-02T09:15:38;17.33;;;11.47;;
16822;SDS011;8528;49.976;11.858;2024-03-02T09:18:12;15.03;;;10.97;;
16822;SDS011;8528;49.976;11.858;2024-03-02T09:20:52;18.50;;;12.10;;
16822;SDS011;8528;49.976;11.858;2024-03-02T09:23:25;16.87;;;11.70;;
16822;SDS011;8528;49.976;11.858;2024-03-02T09:25:55;18.83;;;12.17;;
16822;SDS011;8528;49.976;11.858;2024-03-02T09:28:22;20.00;;;13.63;;
16822;SDS011;8528;49.976;11.858;2024-03-02T09:30:49;20.57;;;13.53;;
16822;SDS011;8528;49.976;11.858;2024-03-02T09:33:16;22.40;;;13.47;;
16822;SDS011;8528;49.976;11.858;2024-03-02T09:35:43;21.10;;;13.60;;
16822;SDS011;8528;49.976;11.858;2024-03-02T09:38:16;21.93;;;13.80;;
16822;SDS011;8528;49.976;11.858;2024-03-02T09:40:43;20.50;;;12.80;;
16822;SDS011;8528;49.976;11.858;2024-03-02T09:43:13;21.03;;;13.73;;
16822;SDS011;8528;49.976;11.858;2024-03-02T09:45:41;19.60;;;12.73;;
16822;SDS011;8528;49.976;11.858;2024-03-02T09:48:11;20.27;;;13.47;;
16822;SDS011;8528;49.976;11.858;2024-03-02T09:50:44;21.73;;;13.43;;
16822;SDS011;8528;49.976;11.858;2024-03-02T09:53:12;19.37;;;13.23;;
16822;SDS011;8528;49.976;11.858;2024-03-02T09:55:41;17.30;;;11.80;;
16822;SDS011;8528;49.976;11.858;2024-03-02T09:58:13;20.50;;;12.90;;
16822;SDS011;8528;49.976;11.858;2024-03-02T10:00:41;20.90;;;13.40;;
16822;SDS011;8528;49.976;11.858;2024-03-02T10:03:12;22.47;;;14.23;;
16822;SDS011;8528;49.976;11.858;2024-03-02T10:05:39;27.47;;;14.57;;
16822;SDS011;8528;49.976;11.858;2024-03-02T10:08:07;17.60;;;11.90;;
16822;SDS011;8528;49.976;11.858;2024-03-02T10:10:37;19.30;;;12.73;;
16822;SDS011;8528;49.976;11.858;2024-03-02T10:13:14;20.43;;;13.17;;
16822;SDS011;8528;49.976;11.858;2024-03-02T10:15:49;22.10;;;13.57;;
16822;SDS011;8528;49.976;11.858;2024-03-02T10:18:19;20.47;;;13.17;;
16822;SDS011;8528;49.976;11.858;2024-03-02T10:20:54;19.27;;;12.83;;
16822;SDS011;8528;49.976;11.858;2024-03-02T10:23:21;20.77;;;12.77;;
16822;SDS011;8528;49.976;11.858;2024-03-02T10:25:48;22.10;;;12.70;;
16822;SDS011;8528;49.976;11.858;2024-03-02T10:28:23;23.47;;;13.43;;
16822;SDS011;8528;49.976;11.858;2024-03-02T10:30:53;20.40;;;12.87;;
16822;SDS011;8528;49.976;11.858;2024-03-02T10:33:23;20.80;;;13.40;;
16822;SDS011;8528;49.976;11.858;2024-03-02T10:35:51;23.57;;;14.13;;
16822;SDS011;8528;49.976;11.858;2024-03-02T10:38:18;22.37;;;13.30;;
16822;SDS011;8528;49.976;11.858;2024-03-02T10:40:48;24.83;;;14.90;;
16822;SDS011;8528;49.976;11.858;2024-03-02T10:43:19;24.83;;;13.40;;
16822;SDS011;8528;49.976;11.858;2024-03-02T10:45:51;21.83;;;13.23;;
16822;SDS011;8528;49.976;11.858;2024-03-02T10:48:19;20.50;;;12.77;;
16822;SDS011;8528;49.976;11.858;2024-03-02T10:50:48;20.87;;;13.03;;
16822;SDS011;8528;49.976;11.858;2024-03-02T10:53:15;24.20;;;14.33;;
16822;SDS011;8528;49.976;11.858;2024-03-02T10:55:42;19.73;;;12.97;;
16822;SDS011;8528;49.976;11.858;2024-03-02T10:58:09;23.13;;;13.40;;
16822;SDS011;8528;49.976;11.858;2024-03-02T11:00:39;18.30;;;11.93;;
16822;SDS011;8528;49.976;11.858;2024-03-02T11:03:10;20.17;;;12.73;;
16822;SDS011;8528;49.976;11.858;2024-03-02T11:05:40;19.63;;;12.53;;
16822;SDS011;8528;49.976;11.858;2024-03-02T11:08:13;20.03;;;12.67;;
16822;SDS011;8528;49.976;11.858;2024-03-02T11:11:07;20.57;;;12.33;;
16822;SDS011;8528;49.976;11.858;2024-03-02T11:13:33;19.33;;;12.70;;
16822;SDS011;8528;49.976;11.858;2024-03-02T11:16:17;19.40;;;12.83;;
16822;SDS011;8528;49.976;11.858;2024-03-02T11:18:56;21.83;;;13.73;;
16822;SDS011;8528;49.976;11.858;2024-03-02T11:21:25;24.17;;;15.03;;
16822;SDS011;8528;49.976;11.858;2024-03-02T11:23:59;19.63;;;12.77;;
16822;SDS011;8528;49.976;11.858;2024-03-02T11:26:29;23.93;;;15.20;;
16822;SDS011;8528;49.976;11.858;2024-03-02T11:29:07;21.23;;;13.03;;
16822;SDS011;8528;49.976;11.858;2024-03-02T11:34:35;20.20;;;13.40;;
16822;SDS011;8528;49.976;11.858;2024-03-02T11:37:08;21.90;;;13.83;;
16822;SDS011;8528;49.976;11.858;2024-03-02T11:39:37;18.80;;;12.30;;
16822;SDS011;8528;49.976;11.858;2024-03-02T11:42:06;22.17;;;12.33;;
16822;SDS011;8528;49.976;11.858;2024-03-02T11:44:36;19.53;;;12.90;;
16822;SDS011;8528;49.976;11.858;2024-03-02T11:47:07;23.60;;;13.77;;
16822;SDS011;8528;49.976;11.858;2024-03-02T11:52:15;24.37;;;14.60;;
16822;SDS011;8528;49.976;11.858;2024-03-02T11:54:44;22.67;;;15.10;;
16822;SDS011;8528;49.976;11.858;2024-03-02T11:57:16;20.70;;;13.80;;
16822;SDS011;8528;49.976;11.858;2024-03-02T11:59:49;20.43;;;12.97;;
16822;SDS011;8528;49.976;11.858;2024-03-02T12:02:17;22.67;;;13.73;;
16822;SDS011;8528;49.976;11.858;2024-03-02T12:04:53;22.87;;;13.33;;
16822;SDS011;8528;49.976;11.858;2024-03-02T12:07:24;20.60;;;13.67;;
16822;SDS011;8528;49.976;11.858;2024-03-02T12:10:00;21.37;;;13.43;;
16822;SDS011;8528;49.976;11.858;2024-03-02T12:12:28;23.93;;;14.07;;
16822;SDS011;8528;49.976;11.858;2024-03-02T12:14:58;23.53;;;14.70;;
16822;SDS011;8528;49.976;11.858;2024-03-02T12:17:26;25.53;;;15.33;;
16822;SDS011;8528;49.976;11.858;2024-03-02T12:19:57;25.80;;;15.00;;
16822;SDS011;8528;49.976;11.858;2024-03-02T12:22:30;24.40;;;14.10;;
16822;SDS011;8528;49.976;11.858;2024-03-02T12:24:56;26.83;;;15.23;;
16822;SDS011;8528;49.976;11.858;2024-03-02T12:27:24;21.83;;;12.97;;
16822;SDS011;8528;49.976;11.858;2024-03-02T12:29:53;22.03;;;13.60;;
16822;SDS011;8528;49.976;11.858;2024-03-02T12:32:20;22.47;;;13.80;;
16822;SDS011;8528;49.976;11.858;2024-03-02T12:34:50;21.67;;;13.30;;
16822;SDS011;8528;49.976;11.858;2024-03-02T12:37:17;21.60;;;13.93;;
16822;SDS011;8528;49.976;11.858;2024-03-02T12:39:45;19.07;;;12.80;;
16822;SDS011;8528;49.976;11.858;2024-03-02T12:42:13;21.57;;;14.63;;
16822;SDS011;8528;49.976;11.858;2024-03-02T12:44:43;21.47;;;14.17;;
16822;SDS011;8528;49.976;11.858;2024-03-02T12:47:09;22.37;;;13.97;;
16822;SDS011;8528;49.976;11.858;2024-03-02T12:49:39;22.13;;;13.90;;
16822;SDS011;8528;49.976;11.858;2024-03-02T12:52:07;23.43;;;13.20;;
16822;SDS011;8528;49.976;11.858;2024-03-02T12:54:34;22.70;;;13.47;;
16822;SDS011;8528;49.976;11.858;2024-03-02T12:57:04;19.53;;;12.17;;
16822;SDS011;8528;49.976;11.858;2024-03-02T12:59:31;21.67;;;13.77;;
16822;SDS011;8528;49.976;11.858;2024-03-02T13:02:04;24.70;;;14.47;;
16822;SDS011;8528;49.976;11.858;2024-03-02T13:04:35;22.47;;;13.97;;
16822;SDS011;8528;49.976;11.858;2024-03-02T13:07:02;21.77;;;13.80;;
16822;SDS011;8528;49.976;11.858;2024-03-02T13:09:29;21.63;;;12.30;;
16822;SDS011;8528;49.976;11.858;2024-03-02T13:12:00;23.03;;;12.97;;
16822;SDS011;8528;49.976;11.858;2024-03-02T13:14:27;19.10;;;11.77;;
16822;SDS011;8528;49.976;11.858;2024-03-02T13:17:04;19.70;;;12.70;;
16822;SDS011;8528;49.976;11.858;2024-03-02T13:19:31;19.17;;;12.43;;
16822;SDS011;8528;49.976;11.858;2024-03-02T13:21:58;20.23;;;12.33;;
16822;SDS011;8528;49.976;11.858;2024-03-02T13:24:25;22.87;;;13.23;;
16822;SDS011;8528;49.976;11.858;2024-03-02T13:27:00;21.53;;;13.20;;
16822;SDS011;8528;49.976;11.858;2024-03-02T13:29:30;22.27;;;13.07;;
16822;SDS011;8528;49.976;11.858;2024-03-02T13:32:02;20.40;;;12.20;;
16822;SDS011;8528;49.976;11.858;2024-03-02T13:34:32;20.10;;;12.47;;
16822;SDS011;8528;49.976;11.858;2024-03-02T13:36:59;23.00;;;13.17;;
16822;SDS011;8528;49.976;11.858;2024-03-02T13:39:31;22.47;;;13.60;;
16822;SDS011;8528;49.976;11.858;2024-03-02T13:41:59;22.67;;;12.57;;
16822;SDS011;8528;49.976;11.858;2024-03-02T13:44:36;22.40;;;13.00;;
16822;SDS011;8528;49.976;11.858;2024-03-02T13:47:06;23.27;;;13.40;;
16822;SDS011;8528;49.976;11.858;2024-03-02T13:49:37;19.80;;;11.63;;
16822;SDS011;8528;49.976;11.858;2024-03-02T13:52:06;21.30;;;11.90;;
16822;SDS011;8528;49.976;11.858;2024-03-02T13:54:53;19.13;;;11.60;;
16822;SDS011;8528;49.976;11.858;2024-03-02T13:57:23;16.23;;;10.50;;
16822;SDS011;8528;49.976;11.858;2024-03-02T13:59:52;19.33;;;11.77;;
16822;SDS011;8528;49.976;11.858;2024-03-02T14:02:22;16.83;;;11.13;;
16822;SDS011;8528;49.976;11.858;2024-03-02T14:04:48;17.47;;;10.87;;
16822;SDS011;8528;49.976;11.858;2024-03-02T14:07:17;18.83;;;11.13;;
16822;SDS011;8528;49.976;11.858;2024-03-02T14:09:44;17.73;;;10.67;;
16822;SDS011;8528;49.976;11.858;2024-03-02T14:12:11;19.23;;;11.90;;
16822;SDS011;8528;49.976;11.858;2024-03-02T14:14:40;21.57;;;11.73;;
16822;SDS011;8528;49.976;11.858;2024-03-02T14:17:11;18.93;;;10.73;;
16822;SDS011;8528;49.976;11.858;2024-03-02T14:19:41;21.67;;;11.23;;
16822;SDS011;8528;49.976;11.858;2024-03-02T14:22:08;19.67;;;12.03;;
16822;SDS011;8528;49.976;11.858;2024-03-02T14:24:35;20.60;;;11.03;;
16822;SDS011;8528;49.976;11.858;2024-03-02T14:27:09;17.73;;;11.10;;
16822;SDS011;8528;49.976;11.858;2024-03-02T14:29:53;16.50;;;10.83;;
16822;SDS011;8528;49.976;11.858;2024-03-02T14:32:20;17.70;;;10.67;;
16822;SDS011;8528;49.976;11.858;2024-03-02T14:34:47;18.80;;;10.83;;
16822;SDS011;8528;49.976;11.858;2024-03-02T14:37:14;18.63;;;10.63;;
16822;SDS011;8528;49.976;11.858;2024-03-02T14:39:43;16.73;;;9.40;;
16822;SDS011;8528;49.976;11.858;2024-03-02T14:42:10;16.33;;;10.30;;
16822;SDS011;8528;49.976;11.858;2024-03-02T14:44:40;17.83;;;10.20;;
16822;SDS011;8528;49.976;11.858;2024-03-02T14:47:07;16.03;;;9.40;;
16822;SDS011;8528;49.976;11.858;2024-03-02T14:49:34;15.17;;;8.90;;
16822;SDS011;8528;49.976;11.858;2024-03-02T14:52:04;16.83;;;9.67;;
16822;SDS011;8528;49.976;11.858;2024-03-02T14:54:37;17.57;;;10.20;;